sensor_id;sensor_type;location;lat;lon;timestamp;temperature;humidity
76967;DHT22;65904;52.278;20.972;2023-07-13T00:00:48;19.80;99.90
76967;DHT22;65904;52.278;20.972;2023-07-13T00:03:42;19.70;99.90
76967;DHT22;65904;52.278;20.972;2023-07-13T00:06:28;19.70;99.90
76967;DHT22;65904;52.278;20.972;2023-07-13T00:09:18;19.70;99.90
76967;DHT22;65904;52.278;20.972;2023-07-13T00:12:19;19.70;99.90
76967;DHT22;65904;52.278;20.972;2023-07-13T00:15:11;19.70;99.90
76967;DHT22;65904;52.278;20.972;2023-07-13T00:17:58;19.60;99.90
76967;DHT22;65904;52.278;20.972;2023-07-13T00:20:46;19.60;99.90
76967;DHT22;65904;52.278;20.972;2023-07-13T00:23:33;19.60;99.90
76967;DHT22;65904;52.278;20.972;2023-07-13T00:26:19;19.60;99.90
76967;DHT22;65904;52.278;20.972;2023-07-13T00:29:07;19.60;99.90
76967;DHT22;65904;52.278;20.972;2023-07-13T00:31:53;19.50;99.90
76967;DHT22;65904;52.278;20.972;2023-07-13T00:34:40;19.50;99.90
76967;DHT22;65904;52.278;20.972;2023-07-13T00:37:28;19.50;99.90
76967;DHT22;65904;52.278;20.972;2023-07-13T00:40:16;19.50;99.90
76967;DHT22;65904;52.278;20.972;2023-07-13T00:43:05;19.50;99.90
76967;DHT22;65904;52.278;20.972;2023-07-13T00:46:21;19.50;99.90
76967;DHT22;65904;52.278;20.972;2023-07-13T00:49:12;19.40;99.90
76967;DHT22;65904;52.278;20.972;2023-07-13T00:52:04;19.40;99.90
76967;DHT22;65904;52.278;20.972;2023-07-13T00:54:53;19.40;99.90
76967;DHT22;65904;52.278;20.972;2023-07-13T00:57:40;19.40;99.90
76967;DHT22;65904;52.278;20.972;2023-07-13T01:00:27;19.40;99.90
76967;DHT22;65904;52.278;20.972;2023-07-13T01:03:15;19.50;99.90
76967;DHT22;65904;52.278;20.972;2023-07-13T01:06:02;19.50;99.90
76967;DHT22;65904;52.278;20.972;2023-07-13T01:08:48;19.50;99.90
76967;DHT22;65904;52.278;20.972;2023-07-13T01:11:36;19.50;99.90
76967;DHT22;65904;52.278;20.972;2023-07-13T01:14:23;19.50;99.90
76967;DHT22;65904;52.278;20.972;2023-07-13T01:17:10;19.50;99.90
76967;DHT22;65904;52.278;20.972;2023-07-13T01:19:57;19.50;99.90
76967;DHT22;65904;52.278;20.972;2023-07-13T01:22:46;19.40;99.90
76967;DHT22;65904;52.278;20.972;2023-07-13T01:25:32;19.50;99.90
76967;DHT22;65904;52.278;20.972;2023-07-13T01:28:19;19.40;99.90
76967;DHT22;65904;52.278;20.972;2023-07-13T01:31:05;19.40;99.90
76967;DHT22;65904;52.278;20.972;2023-07-13T01:33:53;19.50;99.90
76967;DHT22;65904;52.278;20.972;2023-07-13T01:36:40;19.50;99.90
76967;DHT22;65904;52.278;20.972;2023-07-13T01:39:27;19.50;99.90
76967;DHT22;65904;52.278;20.972;2023-07-13T01:42:14;19.40;99.90
76967;DHT22;65904;52.278;20.972;2023-07-13T01:44:59;19.40;99.90
76967;DHT22;65904;52.278;20.972;2023-07-13T01:47:46;19.40;99.90
76967;DHT22;65904;52.278;20.972;2023-07-13T01:50:33;19.40;99.90
76967;DHT22;65904;52.278;20.972;2023-07-13T01:53:19;19.40;99.90
76967;DHT22;65904;52.278;20.972;2023-07-13T01:56:06;19.40;99.90
76967;DHT22;65904;52.278;20.972;2023-07-13T01:58:54;19.40;99.90
76967;DHT22;65904;52.278;20.972;2023-07-13T02:01:39;19.40;99.90
76967;DHT22;65904;52.278;20.972;2023-07-13T02:04:26;19.40;99.90
76967;DHT22;65904;52.278;20.972;2023-07-13T02:07:11;19.40;99.90
76967;DHT22;65904;52.278;20.972;2023-07-13T02:09:58;19.30;99.90
76967;DHT22;65904;52.278;20.972;2023-07-13T02:12:45;19.40;99.90
76967;DHT22;65904;52.278;20.972;2023-07-13T02:15:31;19.30;99.90
76967;DHT22;65904;52.278;20.972;2023-07-13T02:18:17;19.30;99.90
76967;DHT22;65904;52.278;20.972;2023-07-13T02:21:03;19.30;99.90
76967;DHT22;65904;52.278;20.972;2023-07-13T02:23:50;19.30;99.90
76967;DHT22;65904;52.278;20.972;2023-07-13T02:26:37;19.30;99.90
76967;DHT22;65904;52.278;20.972;2023-07-13T02:29:25;19.20;99.90
76967;DHT22;65904;52.278;20.972;2023-07-13T02:32:11;19.10;99.90
76967;DHT22;65904;52.278;20.972;2023-07-13T02:34:57;19.10;99.90
76967;DHT22;65904;52.278;20.972;2023-07-13T02:37:43;19.10;99.90
76967;DHT22;65904;52.278;20.972;2023-07-13T02:40:29;19.10;99.90
76967;DHT22;65904;52.278;20.972;2023-07-13T02:43:17;19.00;99.90
76967;DHT22;65904;52.278;20.972;2023-07-13T02:46:07;19.00;99.90
76967;DHT22;65904;52.278;20.972;2023-07-13T02:48:54;19.00;99.90
76967;DHT22;65904;52.278;20.972;2023-07-13T02:51:40;19.00;99.90
76967;DHT22;65904;52.278;20.972;2023-07-13T02:54:26;19.00;99.90
76967;DHT22;65904;52.278;20.972;2023-07-13T02:57:12;18.90;99.90
76967;DHT22;65904;52.278;20.972;2023-07-13T02:59:59;18.90;99.90
76967;DHT22;65904;52.278;20.972;2023-07-13T03:02:46;18.90;99.90
76967;DHT22;65904;52.278;20.972;2023-07-13T03:05:33;18.90;99.90
76967;DHT22;65904;52.278;20.972;2023-07-13T03:08:19;18.90;99.90
76967;DHT22;65904;52.278;20.972;2023-07-13T03:11:10;18.90;99.90
76967;DHT22;65904;52.278;20.972;2023-07-13T03:13:59;18.90;99.90
76967;DHT22;65904;52.278;20.972;2023-07-13T03:16:48;18.90;99.90
76967;DHT22;65904;52.278;20.972;2023-07-13T03:19:35;18.90;99.90
76967;DHT22;65904;52.278;20.972;2023-07-13T03:22:22;18.90;99.90
76967;DHT22;65904;52.278;20.972;2023-07-13T03:25:10;18.90;99.90
76967;DHT22;65904;52.278;20.972;2023-07-13T03:27:56;18.90;99.90
76967;DHT22;65904;52.278;20.972;2023-07-13T03:30:43;18.90;99.90
76967;DHT22;65904;52.278;20.972;2023-07-13T03:33:29;19.00;99.90
76967;DHT22;65904;52.278;20.972;2023-07-13T03:36:19;18.90;99.90
76967;DHT22;65904;52.278;20.972;2023-07-13T03:39:06;19.00;99.90
76967;DHT22;65904;52.278;20.972;2023-07-13T03:42:03;19.00;99.90
76967;DHT22;65904;52.278;20.972;2023-07-13T03:44:49;19.10;99.90
76967;DHT22;65904;52.278;20.972;2023-07-13T03:47:37;19.10;99.90
76967;DHT22;65904;52.278;20.972;2023-07-13T03:50:24;19.10;99.90
76967;DHT22;65904;52.278;20.972;2023-07-13T03:53:11;19.10;99.90
76967;DHT22;65904;52.278;20.972;2023-07-13T03:55:57;19.20;99.90
76967;DHT22;65904;52.278;20.972;2023-07-13T03:58:45;19.20;99.90
76967;DHT22;65904;52.278;20.972;2023-07-13T04:01:40;19.30;99.90
76967;DHT22;65904;52.278;20.972;2023-07-13T04:04:26;19.30;99.90
76967;DHT22;65904;52.278;20.972;2023-07-13T04:07:12;19.40;99.90
76967;DHT22;65904;52.278;20.972;2023-07-13T04:10:00;19.50;99.90
76967;DHT22;65904;52.278;20.972;2023-07-13T04:12:46;19.60;99.90
76967;DHT22;65904;52.278;20.972;2023-07-13T04:15:32;19.70;99.90
76967;DHT22;65904;52.278;20.972;2023-07-13T04:18:19;19.80;99.90
76967;DHT22;65904;52.278;20.972;2023-07-13T04:21:05;20.00;99.90
76967;DHT22;65904;52.278;20.972;2023-07-13T04:23:52;20.10;99.90
76967;DHT22;65904;52.278;20.972;2023-07-13T04:26:40;20.20;99.90
76967;DHT22;65904;52.278;20.972;2023-07-13T04:29:26;20.40;99.90
76967;DHT22;65904;52.278;20.972;2023-07-13T04:32:12;20.50;99.90
76967;DHT22;65904;52.278;20.972;2023-07-13T04:34:59;20.60;99.90
76967;DHT22;65904;52.278;20.972;2023-07-13T04:37:45;20.70;99.90
76967;DHT22;65904;52.278;20.972;2023-07-13T04:40:31;20.70;99.90
76967;DHT22;65904;52.278;20.972;2023-07-13T04:43:18;20.80;99.90
76967;DHT22;65904;52.278;20.972;2023-07-13T04:46:06;20.90;99.90
76967;DHT22;65904;52.278;20.972;2023-07-13T04:48:53;21.00;99.90
76967;DHT22;65904;52.278;20.972;2023-07-13T04:51:39;21.10;99.90
76967;DHT22;65904;52.278;20.972;2023-07-13T04:54:25;21.10;99.90
76967;DHT22;65904;52.278;20.972;2023-07-13T04:57:11;21.10;99.90
76967;DHT22;65904;52.278;20.972;2023-07-13T04:59:58;21.20;99.90
76967;DHT22;65904;52.278;20.972;2023-07-13T05:02:46;21.30;99.90
76967;DHT22;65904;52.278;20.972;2023-07-13T05:05:32;21.50;99.90
76967;DHT22;65904;52.278;20.972;2023-07-13T05:08:18;21.40;99.90
76967;DHT22;65904;52.278;20.972;2023-07-13T05:11:05;21.40;99.90
76967;DHT22;65904;52.278;20.972;2023-07-13T05:13:52;21.50;99.90
76967;DHT22;65904;52.278;20.972;2023-07-13T05:16:39;21.60;99.90
76967;DHT22;65904;52.278;20.972;2023-07-13T05:19:26;21.60;99.90
76967;DHT22;65904;52.278;20.972;2023-07-13T05:22:11;21.70;99.90
76967;DHT22;65904;52.278;20.972;2023-07-13T05:24:58;21.70;99.90
76967;DHT22;65904;52.278;20.972;2023-07-13T05:27:44;21.80;99.90
76967;DHT22;65904;52.278;20.972;2023-07-13T05:30:32;22.00;99.90
76967;DHT22;65904;52.278;20.972;2023-07-13T05:33:20;22.00;99.90
76967;DHT22;65904;52.278;20.972;2023-07-13T05:36:07;22.00;99.90
76967;DHT22;65904;52.278;20.972;2023-07-13T05:38:53;22.00;99.90
76967;DHT22;65904;52.278;20.972;2023-07-13T05:41:39;21.90;99.90
76967;DHT22;65904;52.278;20.972;2023-07-13T05:44:25;22.10;99.90
76967;DHT22;65904;52.278;20.972;2023-07-13T05:47:11;22.20;99.90
76967;DHT22;65904;52.278;20.972;2023-07-13T05:50:00;22.40;99.90
76967;DHT22;65904;52.278;20.972;2023-07-13T05:52:46;22.60;99.90
76967;DHT22;65904;52.278;20.972;2023-07-13T05:55:33;22.80;99.90
76967;DHT22;65904;52.278;20.972;2023-07-13T05:58:19;22.70;99.90
76967;DHT22;65904;52.278;20.972;2023-07-13T06:01:08;22.90;99.90
76967;DHT22;65904;52.278;20.972;2023-07-13T06:03:56;23.00;99.90
76967;DHT22;65904;52.278;20.972;2023-07-13T06:06:43;23.00;99.90
76967;DHT22;65904;52.278;20.972;2023-07-13T06:09:29;23.00;99.90
76967;DHT22;65904;52.278;20.972;2023-07-13T06:12:15;23.10;99.90
76967;DHT22;65904;52.278;20.972;2023-07-13T06:15:01;23.10;99.90
76967;DHT22;65904;52.278;20.972;2023-07-13T06:17:48;23.20;99.90
76967;DHT22;65904;52.278;20.972;2023-07-13T06:20:35;23.30;99.90
76967;DHT22;65904;52.278;20.972;2023-07-13T06:23:22;23.20;99.90
76967;DHT22;65904;52.278;20.972;2023-07-13T06:26:08;23.20;99.90
76967;DHT22;65904;52.278;20.972;2023-07-13T06:28:54;23.20;99.90
76967;DHT22;65904;52.278;20.972;2023-07-13T06:31:41;23.30;99.90
76967;DHT22;65904;52.278;20.972;2023-07-13T06:34:27;23.40;99.90
76967;DHT22;65904;52.278;20.972;2023-07-13T06:37:13;23.50;99.90
76967;DHT22;65904;52.278;20.972;2023-07-13T06:40:00;23.60;99.90
76967;DHT22;65904;52.278;20.972;2023-07-13T06:42:48;23.60;99.90
76967;DHT22;65904;52.278;20.972;2023-07-13T06:45:40;23.70;99.90
76967;DHT22;65904;52.278;20.972;2023-07-13T06:48:28;23.70;99.90
76967;DHT22;65904;52.278;20.972;2023-07-13T06:51:13;23.70;99.90
76967;DHT22;65904;52.278;20.972;2023-07-13T06:54:00;23.80;99.90
76967;DHT22;65904;52.278;20.972;2023-07-13T06:56:48;23.90;99.90
76967;DHT22;65904;52.278;20.972;2023-07-13T06:59:34;23.80;99.90
76967;DHT22;65904;52.278;20.972;2023-07-13T07:02:20;24.00;99.90
76967;DHT22;65904;52.278;20.972;2023-07-13T07:05:07;24.20;99.90
76967;DHT22;65904;52.278;20.972;2023-07-13T07:07:55;24.20;99.90
76967;DHT22;65904;52.278;20.972;2023-07-13T07:10:42;24.30;99.90
76967;DHT22;65904;52.278;20.972;2023-07-13T07:13:29;24.40;99.90
76967;DHT22;65904;52.278;20.972;2023-07-13T07:16:16;24.60;99.90
76967;DHT22;65904;52.278;20.972;2023-07-13T07:19:03;24.70;99.90
76967;DHT22;65904;52.278;20.972;2023-07-13T07:21:49;24.60;99.90
76967;DHT22;65904;52.278;20.972;2023-07-13T07:24:35;24.60;99.90
76967;DHT22;65904;52.278;20.972;2023-07-13T07:27:22;24.80;99.90
76967;DHT22;65904;52.278;20.972;2023-07-13T07:30:10;24.90;99.90
76967;DHT22;65904;52.278;20.972;2023-07-13T07:32:57;24.90;99.90
76967;DHT22;65904;52.278;20.972;2023-07-13T07:35:43;25.10;99.90
76967;DHT22;65904;52.278;20.972;2023-07-13T07:38:29;25.10;99.90
76967;DHT22;65904;52.278;20.972;2023-07-13T07:41:16;25.20;99.90
76967;DHT22;65904;52.278;20.972;2023-07-13T07:44:02;25.40;99.90
76967;DHT22;65904;52.278;20.972;2023-07-13T07:46:49;25.30;99.90
76967;DHT22;65904;52.278;20.972;2023-07-13T07:49:36;25.50;99.90
76967;DHT22;65904;52.278;20.972;2023-07-13T07:52:23;25.60;99.90
76967;DHT22;65904;52.278;20.972;2023-07-13T07:55:09;25.70;99.90
76967;DHT22;65904;52.278;20.972;2023-07-13T07:57:56;25.60;99.90
76967;DHT22;65904;52.278;20.972;2023-07-13T08:00:42;25.40;99.90
76967;DHT22;65904;52.278;20.972;2023-07-13T08:03:30;25.50;99.90
76967;DHT22;65904;52.278;20.972;2023-07-13T08:06:16;25.50;99.90
76967;DHT22;65904;52.278;20.972;2023-07-13T08:09:04;25.70;99.90
76967;DHT22;65904;52.278;20.972;2023-07-13T08:11:51;25.70;99.90
76967;DHT22;65904;52.278;20.972;2023-07-13T08:14:39;25.90;99.90
76967;DHT22;65904;52.278;20.972;2023-07-13T08:17:25;25.90;99.90
76967;DHT22;65904;52.278;20.972;2023-07-13T08:20:17;26.00;99.90
76967;DHT22;65904;52.278;20.972;2023-07-13T08:23:04;25.90;99.90
76967;DHT22;65904;52.278;20.972;2023-07-13T08:25:51;25.90;99.90
76967;DHT22;65904;52.278;20.972;2023-07-13T08:28:38;26.30;99.90
76967;DHT22;65904;52.278;20.972;2023-07-13T08:31:24;26.50;99.90
76967;DHT22;65904;52.278;20.972;2023-07-13T08:34:10;26.70;99.90
76967;DHT22;65904;52.278;20.972;2023-07-13T08:36:57;26.80;99.90
76967;DHT22;65904;52.278;20.972;2023-07-13T08:39:43;26.90;99.90
76967;DHT22;65904;52.278;20.972;2023-07-13T08:42:35;27.10;99.90
76967;DHT22;65904;52.278;20.972;2023-07-13T08:45:25;27.30;99.90
76967;DHT22;65904;52.278;20.972;2023-07-13T08:48:20;27.60;99.90
76967;DHT22;65904;52.278;20.972;2023-07-13T08:51:15;27.60;99.90
76967;DHT22;65904;52.278;20.972;2023-07-13T08:54:12;27.60;99.90
76967;DHT22;65904;52.278;20.972;2023-07-13T08:57:03;27.60;99.90
76967;DHT22;65904;52.278;20.972;2023-07-13T08:59:54;27.70;99.90
76967;DHT22;65904;52.278;20.972;2023-07-13T09:02:45;27.80;99.90
76967;DHT22;65904;52.278;20.972;2023-07-13T09:05:38;27.60;99.90
76967;DHT22;65904;52.278;20.972;2023-07-13T09:08:31;28.00;99.90
76967;DHT22;65904;52.278;20.972;2023-07-13T09:11:42;28.40;99.90
76967;DHT22;65904;52.278;20.972;2023-07-13T09:14:42;28.70;99.90
76967;DHT22;65904;52.278;20.972;2023-07-13T09:17:35;28.90;99.90
76967;DHT22;65904;52.278;20.972;2023-07-13T09:20:27;29.20;99.90
76967;DHT22;65904;52.278;20.972;2023-07-13T09:23:17;29.20;99.90
76967;DHT22;65904;52.278;20.972;2023-07-13T09:26:10;28.60;99.90
76967;DHT22;65904;52.278;20.972;2023-07-13T09:29:03;27.80;99.90
76967;DHT22;65904;52.278;20.972;2023-07-13T09:31:54;27.30;99.90
76967;DHT22;65904;52.278;20.972;2023-07-13T09:34:41;26.80;99.90
76967;DHT22;65904;52.278;20.972;2023-07-13T09:37:30;26.60;99.90
76967;DHT22;65904;52.278;20.972;2023-07-13T09:40:21;26.50;99.90
76967;DHT22;65904;52.278;20.972;2023-07-13T09:43:14;26.00;99.90
76967;DHT22;65904;52.278;20.972;2023-07-13T09:46:02;25.90;99.90
76967;DHT22;65904;52.278;20.972;2023-07-13T09:48:49;25.90;99.90
76967;DHT22;65904;52.278;20.972;2023-07-13T09:51:36;25.80;99.90
76967;DHT22;65904;52.278;20.972;2023-07-13T09:54:25;25.90;99.90
76967;DHT22;65904;52.278;20.972;2023-07-13T09:57:13;26.10;99.90
76967;DHT22;65904;52.278;20.972;2023-07-13T10:00:00;26.50;99.90
76967;DHT22;65904;52.278;20.972;2023-07-13T10:02:58;27.20;99.90
76967;DHT22;65904;52.278;20.972;2023-07-13T10:05:45;27.80;99.90
76967;DHT22;65904;52.278;20.972;2023-07-13T10:08:35;28.00;99.90
76967;DHT22;65904;52.278;20.972;2023-07-13T10:11:23;28.10;99.90
76967;DHT22;65904;52.278;20.972;2023-07-13T10:14:13;27.90;99.90
76967;DHT22;65904;52.278;20.972;2023-07-13T10:17:02;27.60;99.90
76967;DHT22;65904;52.278;20.972;2023-07-13T10:19:51;27.40;99.90
76967;DHT22;65904;52.278;20.972;2023-07-13T10:22:42;27.00;99.90
76967;DHT22;65904;52.278;20.972;2023-07-13T10:25:33;26.90;99.90
76967;DHT22;65904;52.278;20.972;2023-07-13T10:28:26;26.40;99.90
76967;DHT22;65904;52.278;20.972;2023-07-13T10:31:15;25.90;99.90
76967;DHT22;65904;52.278;20.972;2023-07-13T10:34:02;25.70;99.90
76967;DHT22;65904;52.278;20.972;2023-07-13T10:36:51;25.40;99.90
76967;DHT22;65904;52.278;20.972;2023-07-13T10:39:38;25.00;99.90
76967;DHT22;65904;52.278;20.972;2023-07-13T10:42:29;24.20;99.90
76967;DHT22;65904;52.278;20.972;2023-07-13T10:45:18;23.60;99.90
76967;DHT22;65904;52.278;20.972;2023-07-13T10:48:07;23.50;99.90
76967;DHT22;65904;52.278;20.972;2023-07-13T10:50:57;23.10;99.90
76967;DHT22;65904;52.278;20.972;2023-07-13T10:53:47;23.00;99.90
76967;DHT22;65904;52.278;20.972;2023-07-13T10:56:34;22.80;99.90
76967;DHT22;65904;52.278;20.972;2023-07-13T10:59:26;22.30;99.90
76967;DHT22;65904;52.278;20.972;2023-07-13T11:02:22;21.90;99.90
76967;DHT22;65904;52.278;20.972;2023-07-13T11:05:20;21.60;99.90
76967;DHT22;65904;52.278;20.972;2023-07-13T11:08:19;21.50;99.90
76967;DHT22;65904;52.278;20.972;2023-07-13T11:14:35;21.20;99.90
76967;DHT22;65904;52.278;20.972;2023-07-13T11:17:37;21.20;99.90
76967;DHT22;65904;52.278;20.972;2023-07-13T11:20:40;21.30;99.90
76967;DHT22;65904;52.278;20.972;2023-07-13T11:23:30;21.30;99.90
76967;DHT22;65904;52.278;20.972;2023-07-13T11:26:40;21.30;99.90
76967;DHT22;65904;52.278;20.972;2023-07-13T11:29:36;21.20;99.90
76967;DHT22;65904;52.278;20.972;2023-07-13T11:32:25;21.20;99.90
76967;DHT22;65904;52.278;20.972;2023-07-13T11:35:19;21.30;99.90
76967;DHT22;65904;52.278;20.972;2023-07-13T11:38:13;21.40;99.90
76967;DHT22;65904;52.278;20.972;2023-07-13T11:41:04;21.20;99.90
76967;DHT22;65904;52.278;20.972;2023-07-13T11:43:53;20.90;99.90
76967;DHT22;65904;52.278;20.972;2023-07-13T11:46:44;21.00;99.90
76967;DHT22;65904;52.278;20.972;2023-07-13T11:49:32;20.80;99.90
76967;DHT22;65904;52.278;20.972;2023-07-13T11:52:21;20.70;99.90
76967;DHT22;65904;52.278;20.972;2023-07-13T11:55:17;20.70;99.90
76967;DHT22;65904;52.278;20.972;2023-07-13T11:58:03;20.70;99.90
76967;DHT22;65904;52.278;20.972;2023-07-13T12:00:51;20.70;99.90
76967;DHT22;65904;52.278;20.972;2023-07-13T12:03:40;20.60;99.90
76967;DHT22;65904;52.278;20.972;2023-07-13T12:06:28;20.70;99.90
76967;DHT22;65904;52.278;20.972;2023-07-13T12:09:15;20.60;99.90
76967;DHT22;65904;52.278;20.972;2023-07-13T12:12:03;20.60;99.90
76967;DHT22;65904;52.278;20.972;2023-07-13T12:14:51;20.60;99.90
76967;DHT22;65904;52.278;20.972;2023-07-13T12:17:37;20.60;99.90
76967;DHT22;65904;52.278;20.972;2023-07-13T12:20:26;20.60;99.90
76967;DHT22;65904;52.278;20.972;2023-07-13T12:23:22;20.70;99.90
76967;DHT22;65904;52.278;20.972;2023-07-13T12:26:10;20.70;99.90
76967;DHT22;65904;52.278;20.972;2023-07-13T12:28:59;20.70;99.90
76967;DHT22;65904;52.278;20.972;2023-07-13T12:31:47;20.70;99.90
76967;DHT22;65904;52.278;20.972;2023-07-13T12:34:51;20.60;99.90
76967;DHT22;65904;52.278;20.972;2023-07-13T12:37:41;20.60;99.90
76967;DHT22;65904;52.278;20.972;2023-07-13T12:40:34;20.70;99.90
76967;DHT22;65904;52.278;20.972;2023-07-13T12:43:22;20.70;99.90
76967;DHT22;65904;52.278;20.972;2023-07-13T12:46:17;20.90;99.90
76967;DHT22;65904;52.278;20.972;2023-07-13T12:49:06;21.00;99.90
76967;DHT22;65904;52.278;20.972;2023-07-13T12:51:57;21.30;99.90
76967;DHT22;65904;52.278;20.972;2023-07-13T12:54:54;21.10;99.90
76967;DHT22;65904;52.278;20.972;2023-07-13T12:57:44;21.20;99.90
76967;DHT22;65904;52.278;20.972;2023-07-13T13:00:35;21.20;99.90
76967;DHT22;65904;52.278;20.972;2023-07-13T13:03:27;21.10;99.90
76967;DHT22;65904;52.278;20.972;2023-07-13T13:06:24;21.10;99.90
76967;DHT22;65904;52.278;20.972;2023-07-13T13:09:13;21.20;99.90
76967;DHT22;65904;52.278;20.972;2023-07-13T13:12:01;21.30;99.90
76967;DHT22;65904;52.278;20.972;2023-07-13T13:14:47;21.30;99.90
76967;DHT22;65904;52.278;20.972;2023-07-13T13:17:34;21.40;99.90
76967;DHT22;65904;52.278;20.972;2023-07-13T13:20:22;21.40;99.90
76967;DHT22;65904;52.278;20.972;2023-07-13T13:23:12;21.40;99.90
76967;DHT22;65904;52.278;20.972;2023-07-13T13:25:59;21.40;99.90
76967;DHT22;65904;52.278;20.972;2023-07-13T13:28:46;21.50;99.90
76967;DHT22;65904;52.278;20.972;2023-07-13T13:31:33;21.60;99.90
76967;DHT22;65904;52.278;20.972;2023-07-13T13:34:20;21.50;99.90
76967;DHT22;65904;52.278;20.972;2023-07-13T13:37:18;21.50;99.90
76967;DHT22;65904;52.278;20.972;2023-07-13T13:40:11;21.40;99.90
76967;DHT22;65904;52.278;20.972;2023-07-13T13:42:59;21.40;99.90
76967;DHT22;65904;52.278;20.972;2023-07-13T13:45:46;21.40;99.90
76967;DHT22;65904;52.278;20.972;2023-07-13T13:48:34;21.30;99.90
76967;DHT22;65904;52.278;20.972;2023-07-13T13:51:22;21.60;99.90
76967;DHT22;65904;52.278;20.972;2023-07-13T13:54:12;21.70;99.90
76967;DHT22;65904;52.278;20.972;2023-07-13T13:56:58;21.70;99.90
76967;DHT22;65904;52.278;20.972;2023-07-13T13:59:45;21.80;99.90
76967;DHT22;65904;52.278;20.972;2023-07-13T14:02:32;21.70;99.90
76967;DHT22;65904;52.278;20.972;2023-07-13T14:05:22;21.60;99.90
76967;DHT22;65904;52.278;20.972;2023-07-13T14:08:13;21.60;99.90
76967;DHT22;65904;52.278;20.972;2023-07-13T14:11:00;21.60;99.90
76967;DHT22;65904;52.278;20.972;2023-07-13T14:13:48;21.60;99.90
76967;DHT22;65904;52.278;20.972;2023-07-13T14:16:35;21.60;99.90
76967;DHT22;65904;52.278;20.972;2023-07-13T14:19:23;21.60;99.90
76967;DHT22;65904;52.278;20.972;2023-07-13T14:22:09;21.60;99.90
76967;DHT22;65904;52.278;20.972;2023-07-13T14:24:56;21.60;99.90
76967;DHT22;65904;52.278;20.972;2023-07-13T14:27:45;21.80;99.90
76967;DHT22;65904;52.278;20.972;2023-07-13T14:30:31;21.70;99.90
76967;DHT22;65904;52.278;20.972;2023-07-13T14:33:18;21.50;99.90
76967;DHT22;65904;52.278;20.972;2023-07-13T14:36:20;21.50;99.90
76967;DHT22;65904;52.278;20.972;2023-07-13T14:39:12;21.50;99.90
76967;DHT22;65904;52.278;20.972;2023-07-13T14:41:59;21.50;99.90
76967;DHT22;65904;52.278;20.972;2023-07-13T14:44:45;21.50;99.90
76967;DHT22;65904;52.278;20.972;2023-07-13T14:47:31;21.30;99.90
76967;DHT22;65904;52.278;20.972;2023-07-13T14:50:20;21.30;99.90
76967;DHT22;65904;52.278;20.972;2023-07-13T14:53:10;21.30;99.90
76967;DHT22;65904;52.278;20.972;2023-07-13T14:55:57;21.30;99.90
76967;DHT22;65904;52.278;20.972;2023-07-13T14:58:43;21.30;99.90
76967;DHT22;65904;52.278;20.972;2023-07-13T15:01:29;21.30;99.90
76967;DHT22;65904;52.278;20.972;2023-07-13T15:04:16;21.20;99.90
76967;DHT22;65904;52.278;20.972;2023-07-13T15:07:03;21.20;99.90
76967;DHT22;65904;52.278;20.972;2023-07-13T15:09:52;21.10;99.90
76967;DHT22;65904;52.278;20.972;2023-07-13T15:12:38;21.10;99.90
76967;DHT22;65904;52.278;20.972;2023-07-13T15:15:24;21.20;99.90
76967;DHT22;65904;52.278;20.972;2023-07-13T15:18:12;21.10;99.90
76967;DHT22;65904;52.278;20.972;2023-07-13T15:20:59;21.00;99.90
76967;DHT22;65904;52.278;20.972;2023-07-13T15:23:48;21.10;99.90
76967;DHT22;65904;52.278;20.972;2023-07-13T15:26:36;21.10;99.90
76967;DHT22;65904;52.278;20.972;2023-07-13T15:29:23;21.00;99.90
76967;DHT22;65904;52.278;20.972;2023-07-13T15:32:12;21.00;99.90
76967;DHT22;65904;52.278;20.972;2023-07-13T15:34:59;21.00;99.90
76967;DHT22;65904;52.278;20.972;2023-07-13T15:37:45;20.90;99.90
76967;DHT22;65904;52.278;20.972;2023-07-13T15:40:31;20.90;99.90
76967;DHT22;65904;52.278;20.972;2023-07-13T15:43:19;20.80;99.90
76967;DHT22;65904;52.278;20.972;2023-07-13T15:46:05;20.80;99.90
76967;DHT22;65904;52.278;20.972;2023-07-13T15:48:53;20.80;99.90
76967;DHT22;65904;52.278;20.972;2023-07-13T15:51:39;20.80;99.90
76967;DHT22;65904;52.278;20.972;2023-07-13T15:54:25;20.80;99.90
76967;DHT22;65904;52.278;20.972;2023-07-13T15:57:11;20.80;99.90
76967;DHT22;65904;52.278;20.972;2023-07-13T15:59:59;20.70;99.90
76967;DHT22;65904;52.278;20.972;2023-07-13T16:02:45;20.80;99.90
76967;DHT22;65904;52.278;20.972;2023-07-13T16:05:31;20.80;99.90
76967;DHT22;65904;52.278;20.972;2023-07-13T16:08:23;20.80;99.90
76967;DHT22;65904;52.278;20.972;2023-07-13T16:11:17;20.80;99.90
76967;DHT22;65904;52.278;20.972;2023-07-13T16:14:04;20.70;99.90
76967;DHT22;65904;52.278;20.972;2023-07-13T16:16:51;20.70;99.90
76967;DHT22;65904;52.278;20.972;2023-07-13T16:19:41;20.70;99.90
76967;DHT22;65904;52.278;20.972;2023-07-13T16:22:27;20.70;99.90
76967;DHT22;65904;52.278;20.972;2023-07-13T16:25:15;20.70;99.90
76967;DHT22;65904;52.278;20.972;2023-07-13T16:28:03;20.70;99.90
76967;DHT22;65904;52.278;20.972;2023-07-13T16:30:50;20.70;99.90
76967;DHT22;65904;52.278;20.972;2023-07-13T16:33:37;20.70;99.90
76967;DHT22;65904;52.278;20.972;2023-07-13T16:36:24;20.70;99.90
76967;DHT22;65904;52.278;20.972;2023-07-13T16:39:11;20.70;99.90
76967;DHT22;65904;52.278;20.972;2023-07-13T16:41:59;20.70;99.90
76967;DHT22;65904;52.278;20.972;2023-07-13T16:44:46;20.70;99.90
76967;DHT22;65904;52.278;20.972;2023-07-13T16:47:32;20.60;99.90
76967;DHT22;65904;52.278;20.972;2023-07-13T16:50:21;20.60;99.90
76967;DHT22;65904;52.278;20.972;2023-07-13T16:53:19;20.70;99.90
76967;DHT22;65904;52.278;20.972;2023-07-13T16:56:13;20.60;99.90
76967;DHT22;65904;52.278;20.972;2023-07-13T16:58:59;20.60;99.90
76967;DHT22;65904;52.278;20.972;2023-07-13T17:01:46;20.60;99.90
76967;DHT22;65904;52.278;20.972;2023-07-13T17:04:33;20.60;99.90
76967;DHT22;65904;52.278;20.972;2023-07-13T17:07:20;20.60;99.90
76967;DHT22;65904;52.278;20.972;2023-07-13T17:10:16;20.60;99.90
76967;DHT22;65904;52.278;20.972;2023-07-13T17:13:09;20.60;99.90
76967;DHT22;65904;52.278;20.972;2023-07-13T17:15:56;20.60;99.90
76967;DHT22;65904;52.278;20.972;2023-07-13T17:18:42;20.60;99.90
76967;DHT22;65904;52.278;20.972;2023-07-13T17:21:29;20.60;99.90
76967;DHT22;65904;52.278;20.972;2023-07-13T17:24:19;20.70;99.90
76967;DHT22;65904;52.278;20.972;2023-07-13T17:27:06;20.60;99.90
76967;DHT22;65904;52.278;20.972;2023-07-13T17:29:52;20.60;99.90